Time;durP1;ratioP1;P1;durP2;ratioP2;P2;SDS_P1;SDS_P2;PMS_P1;PMS_P2;Temp;Humidity;BMP_temperature;BMP_pressure;BME280_temperature;BME280_humidity;BME280_pressure;Samples;Min_cycle;Max_cycle;Signal;HPM_P1;HPM_P2
2023/11/25 00:01:03;;;;;;;7.03;0.52;;;1.80;100.00;;;;;;5063960;28;20748;-74
2023/11/25 00:03:30;;;;;;;9.48;0.77;;;1.90;100.00;;;;;;5053722;28;20041;-74
2023/11/25 00:05:57;;;;;;;5.40;0.73;;;1.90;100.00;;;;;;5059434;28;20072;-74
2023/11/25 00:08:25;;;;;;;2.03;0.40;;;2.00;100.00;;;;;;5035120;28;20068;-74
2023/11/25 00:10:52;;;;;;;2.85;0.35;;;2.00;100.00;;;;;;5043800;28;20071;-74
2023/11/25 00:13:20;;;;;;;3.90;0.50;;;2.00;100.00;;;;;;5054934;28;20218;-74
2023/11/25 00:15:47;;;;;;;5.65;0.80;;;2.10;100.00;;;;;;5055804;28;20203;-75
2023/11/25 00:18:14;;;;;;;4.25;0.65;;;2.10;100.00;;;;;;5058614;28;20502;-74
2023/11/25 00:20:41;;;;;;;5.53;0.52;;;2.10;100.00;;;;;;5054072;28;20172;-74
2023/11/25 00:23:08;;;;;;;0.90;0.40;;;2.00;100.00;;;;;;5051000;28;20048;-74
2023/11/25 00:25:35;;;;;;;5.25;0.80;;;2.00;100.00;;;;;;5059588;28;20049;-74
2023/11/25 00:28:02;;;;;;;4.95;0.60;;;2.00;100.00;;;;;;5058667;28;20060;-74
2023/11/25 00:30:29;;;;;;;3.60;0.47;;;2.00;100.00;;;;;;5053112;28;20446;-74
2023/11/25 00:32:56;;;;;;;8.40;0.77;;;1.90;100.00;;;;;;5042868;28;20055;-74
2023/11/25 00:35:23;;;;;;;5.88;0.70;;;2.00;100.00;;;;;;5057266;28;20095;-74
2023/11/25 00:37:50;;;;;;;1.00;0.40;;;2.00;100.00;;;;;;5056289;28;20170;-74
2023/11/25 00:40:17;;;;;;;5.30;0.77;;;2.00;100.00;;;;;;5055921;28;20473;-74
2023/11/25 00:42:44;;;;;;;11.32;0.93;;;2.00;100.00;;;;;;5057980;28;20044;-74
2023/11/25 00:45:11;;;;;;;3.75;0.75;;;2.00;100.00;;;;;;5057579;28;20744;-74
2023/11/25 00:47:40;;;;;;;6.03;0.50;;;2.00;100.00;;;;;;5045964;28;20050;-74
2023/11/25 00:50:08;;;;;;;5.13;0.60;;;1.90;100.00;;;;;;5047011;28;20106;-74
2023/11/25 00:52:36;;;;;;;2.83;0.90;;;2.00;100.00;;;;;;5060341;28;20802;-74
2023/11/25 00:55:04;;;;;;;2.63;0.50;;;2.00;100.00;;;;;;5060218;28;20068;-74
2023/11/25 00:57:31;;;;;;;3.30;0.80;;;2.00;100.00;;;;;;5039678;28;20048;-74
2023/11/25 00:59:58;;;;;;;8.90;1.05;;;2.00;100.00;;;;;;5064949;28;20087;-74
2023/11/25 01:02:27;;;;;;;4.43;0.90;;;2.00;100.00;;;;;;5064255;28;20040;-74
2023/11/25 01:04:55;;;;;;;4.40;0.80;;;2.00;100.00;;;;;;5058135;28;20081;-74
2023/11/25 01:07:22;;;;;;;5.43;0.43;;;2.00;100.00;;;;;;5039022;28;20053;-74
2023/11/25 01:09:49;;;;;;;5.55;0.70;;;1.90;100.00;;;;;;5061575;28;20048;-74
2023/11/25 01:12:16;;;;;;;3.13;0.57;;;1.90;100.00;;;;;;5063522;28;20576;-74
2023/11/25 01:14:43;;;;;;;8.10;1.08;;;1.80;100.00;;;;;;5047437;28;20056;-74
2023/11/25 01:17:10;;;;;;;3.70;0.98;;;1.80;100.00;;;;;;5044254;28;20056;-74
2023/11/25 01:19:38;;;;;;;5.90;0.63;;;1.80;100.00;;;;;;5041033;28;20048;-74
2023/11/25 01:22:05;;;;;;;9.35;0.95;;;1.70;100.00;;;;;;5046149;28;20048;-74
2023/11/25 01:24:32;;;;;;;5.30;0.75;;;1.70;100.00;;;;;;5065770;28;20045;-74
2023/11/25 01:26:59;;;;;;;7.88;0.63;;;1.60;100.00;;;;;;5061892;28;20126;-74
2023/11/25 01:29:26;;;;;;;3.55;0.60;;;1.60;100.00;;;;;;5046148;28;20097;-74
2023/11/25 01:31:52;;;;;;;18.05;1.77;;;1.60;100.00;;;;;;5046058;28;20079;-74
2023/11/25 01:34:20;;;;;;;4.57;0.73;;;1.60;100.00;;;;;;5040200;28;20059;-74
2023/11/25 01:36:47;;;;;;;3.70;0.70;;;1.60;100.00;;;;;;5048258;28;20049;-74
2023/11/25 01:39:14;;;;;;;1.63;0.50;;;1.60;100.00;;;;;;5059523;28;20044;-74
2023/11/25 01:41:43;;;;;;;7.93;1.33;;;1.70;100.00;;;;;;5047848;28;20485;-74
2023/11/25 01:44:12;;;;;;;8.90;1.30;;;1.80;100.00;;;;;;5052745;28;20119;-74
2023/11/25 01:46:42;;;;;;;3.90;1.38;;;1.90;100.00;;;;;;5060731;28;20512;-74
2023/11/25 01:49:13;;;;;;;5.45;1.08;;;1.90;100.00;;;;;;5062250;28;20045;-74
2023/11/25 01:51:45;;;;;;;18.15;1.55;;;2.00;100.00;;;;;;5062187;28;20060;-74
2023/11/25 01:54:17;;;;;;;12.05;1.02;;;2.10;100.00;;;;;;5057868;28;20671;-74
2023/11/25 01:56:58;;;;;;;9.07;1.05;;;2.10;100.00;;;;;;5064305;28;20129;-74
2023/11/25 01:59:27;;;;;;;7.40;0.95;;;2.20;100.00;;;;;;5063782;28;20052;-74
2023/11/25 02:01:54;;;;;;;2.28;0.60;;;2.10;100.00;;;;;;5064274;28;20106;-75
2023/11/25 02:04:22;;;;;;;5.63;1.35;;;2.10;100.00;;;;;;5063254;28;20044;-74
2023/11/25 02:06:50;;;;;;;13.43;1.00;;;2.00;100.00;;;;;;5063074;28;20049;-75
2023/11/25 02:09:17;;;;;;;8.85;1.23;;;2.00;100.00;;;;;;5064100;28;20134;-74
2023/11/25 02:11:57;;;;;;;4.85;1.27;;;1.90;100.00;;;;;;5064409;28;20619;-74
2023/11/25 02:14:27;;;;;;;4.93;0.90;;;1.90;100.00;;;;;;5065562;28;20140;-74
2023/11/25 02:16:59;;;;;;;7.30;1.08;;;1.80;100.00;;;;;;5064093;28;20064;-75
2023/11/25 02:19:28;;;;;;;7.32;0.60;;;1.70;100.00;;;;;;5061714;28;20135;-74
2023/11/25 02:21:56;;;;;;;5.22;0.88;;;1.60;100.00;;;;;;5064781;28;20045;-74
2023/11/25 02:24:26;;;;;;;14.07;1.95;;;1.60;100.00;;;;;;5061125;28;20128;-74
2023/11/25 02:27:01;;;;;;;12.68;1.52;;;1.50;100.00;;;;;;5054699;28;20133;-74
2023/11/25 02:29:28;;;;;;;4.50;0.90;;;1.50;100.00;;;;;;5061562;28;20716;-74
2023/11/25 02:31:57;;;;;;;11.07;0.93;;;1.40;100.00;;;;;;5047744;28;20140;-74
2023/11/25 02:34:26;;;;;;;8.55;0.55;;;1.30;100.00;;;;;;5053615;28;20707;-74
2023/11/25 02:36:53;;;;;;;6.88;0.85;;;1.30;100.00;;;;;;5043854;28;20045;-74
2023/11/25 02:39:20;;;;;;;12.50;1.02;;;1.20;100.00;;;;;;5036826;28;20433;-74
2023/11/25 02:41:52;;;;;;;9.90;1.27;;;1.20;100.00;;;;;;5037475;28;20138;-74
2023/11/25 02:44:20;;;;;;;6.97;0.98;;;1.10;100.00;;;;;;5044586;28;20048;-74
2023/11/25 02:46:49;;;;;;;9.50;0.90;;;1.10;100.00;;;;;;5060241;28;20045;-74
2023/11/25 02:49:16;;;;;;;17.52;1.70;;;1.10;100.00;;;;;;5065655;28;20099;-74
2023/11/25 02:51:48;;;;;;;14.45;1.73;;;1.00;100.00;;;;;;5062834;28;20056;-73
2023/11/25 02:54:15;;;;;;;12.70;1.23;;;1.00;100.00;;;;;;5057046;28;20870;-74
2023/11/25 02:56:42;;;;;;;6.20;1.08;;;1.10;100.00;;;;;;5061926;28;20074;-74
2023/11/25 02:59:09;;;;;;;11.82;1.58;;;1.20;100.00;;;;;;5042755;28;20080;-74
2023/11/25 03:01:39;;;;;;;5.35;1.02;;;1.30;100.00;;;;;;5034639;28;20049;-74
2023/11/25 03:04:07;;;;;;;5.05;1.20;;;1.40;100.00;;;;;;5050528;28;20639;-74
2023/11/25 03:06:35;;;;;;;14.80;1.20;;;1.50;100.00;;;;;;5062685;28;20663;-74
2023/11/25 03:09:05;;;;;;;9.98;0.93;;;1.50;100.00;;;;;;5037296;28;20059;-75
2023/11/25 03:11:33;;;;;;;4.82;0.73;;;1.50;100.00;;;;;;5062293;28;20141;-74
2023/11/25 03:14:00;;;;;;;9.45;1.10;;;1.50;100.00;;;;;;5044270;28;21126;-74
2023/11/25 03:16:29;;;;;;;13.23;1.77;;;1.50;100.00;;;;;;5056327;28;20076;-74
2023/11/25 03:18:56;;;;;;;6.18;0.80;;;1.40;100.00;;;;;;5058669;28;20044;-74
2023/11/25 03:21:24;;;;;;;14.65;1.45;;;1.40;100.00;;;;;;5055094;28;20545;-74
2023/11/25 03:23:51;;;;;;;5.75;0.80;;;1.30;100.00;;;;;;5032991;28;20049;-74
2023/11/25 03:26:18;;;;;;;7.22;1.52;;;1.30;100.00;;;;;;5035409;28;20122;-74
2023/11/25 03:28:45;;;;;;;15.27;1.35;;;1.30;100.00;;;;;;5056916;28;20560;-75
2023/11/25 03:31:12;;;;;;;7.00;1.13;;;1.30;100.00;;;;;;5041496;28;20057;-74
2023/11/25 03:33:39;;;;;;;3.05;0.70;;;1.30;100.00;;;;;;5056459;28;20084;-74
2023/11/25 03:36:07;;;;;;;3.72;0.80;;;1.30;100.00;;;;;;5063041;28;20825;-74
2023/11/25 03:38:36;;;;;;;8.68;1.08;;;1.30;100.00;;;;;;5064066;28;20049;-74
2023/11/25 03:41:03;;;;;;;22.80;1.73;;;1.20;100.00;;;;;;5059980;28;20057;-74
2023/11/25 03:43:29;;;;;;;9.57;1.90;;;1.10;100.00;;;;;;5051422;28;20536;-74
2023/11/25 03:45:57;;;;;;;8.38;1.10;;;1.10;100.00;;;;;;5047626;28;20785;-74
2023/11/25 03:48:24;;;;;;;8.25;1.45;;;1.00;100.00;;;;;;5063040;28;20465;-74
2023/11/25 03:50:50;;;;;;;5.90;1.08;;;0.90;100.00;;;;;;5061881;28;20063;-74
2023/11/25 03:53:18;;;;;;;4.18;1.10;;;0.80;100.00;;;;;;5053172;28;20097;-74
2023/11/25 03:55:45;;;;;;;9.98;2.03;;;0.80;100.00;;;;;;5043443;28;20102;-74
2023/11/25 03:58:12;;;;;;;10.63;1.17;;;0.70;100.00;;;;;;5059362;28;20138;-74
2023/11/25 04:00:39;;;;;;;11.68;1.70;;;0.70;100.00;;;;;;5053435;28;20878;-74
2023/11/25 04:03:05;;;;;;;11.35;1.58;;;0.70;100.00;;;;;;5053783;28;20444;-74
2023/11/25 04:05:32;;;;;;;15.13;1.40;;;0.70;100.00;;;;;;5041470;28;20048;-74
2023/11/25 04:07:59;;;;;;;10.43;1.80;;;0.70;100.00;;;;;;5041878;28;20440;-74
2023/11/25 04:10:27;;;;;;;8.32;1.15;;;0.70;100.00;;;;;;5061551;28;20068;-74
2023/11/25 04:12:56;;;;;;;16.60;1.77;;;0.70;100.00;;;;;;5056481;28;20059;-74
2023/11/25 04:15:23;;;;;;;6.85;1.45;;;0.70;100.00;;;;;;5061805;28;20125;-74
2023/11/25 04:17:51;;;;;;;7.05;0.98;;;0.60;100.00;;;;;;5044153;28;20048;-74
2023/11/25 04:20:28;;;;;;;12.68;1.05;;;0.60;100.00;;;;;;5043683;28;20191;-74
2023/11/25 04:22:58;;;;;;;11.27;1.27;;;0.60;100.00;;;;;;5061961;28;20105;-74
2023/11/25 04:25:25;;;;;;;7.18;1.45;;;0.50;100.00;;;;;;5066286;28;20610;-74
2023/11/25 04:27:52;;;;;;;9.05;1.15;;;0.50;100.00;;;;;;5060818;28;20057;-74
2023/11/25 04:30:18;;;;;;;19.92;1.60;;;0.40;100.00;;;;;;5064541;28;20543;-74
2023/11/25 04:32:47;;;;;;;9.13;1.02;;;0.40;100.00;;;;;;5045780;28;20690;-74
2023/11/25 04:35:15;;;;;;;15.68;1.58;;;0.30;100.00;;;;;;5045778;28;20059;-74
2023/11/25 04:37:47;;;;;;;19.60;1.80;;;0.30;100.00;;;;;;5050939;28;20057;-74
2023/11/25 04:40:16;;;;;;;7.32;1.15;;;0.30;100.00;;;;;;5061803;28;20053;-74
2023/11/25 04:42:44;;;;;;;6.70;1.17;;;0.20;100.00;;;;;;5058682;28;20049;-74
2023/11/25 04:45:15;;;;;;;5.82;1.17;;;0.10;100.00;;;;;;5063708;28;20056;-74
2023/11/25 04:47:46;;;;;;;5.72;1.40;;;0.10;100.00;;;;;;5050014;28;20157;-74
2023/11/25 04:50:16;;;;;;;9.63;1.67;;;0.10;100.00;;;;;;5063295;28;20056;-74
2023/11/25 04:52:43;;;;;;;9.73;1.35;;;0.10;100.00;;;;;;5049316;28;21230;-74
2023/11/25 04:55:14;;;;;;;7.45;1.23;;;0.00;100.00;;;;;;5065564;28;20045;-74
2023/11/25 04:57:43;;;;;;;6.60;0.70;;;0.00;100.00;;;;;;5074599;28;20099;-74
2023/11/25 05:00:13;;;;;;;15.98;1.42;;;0.00;100.00;;;;;;5052191;28;20130;-74
2023/11/25 05:02:44;;;;;;;11.40;0.95;;;0.00;100.00;;;;;;5071670;28;20040;-74
2023/11/25 05:05:12;;;;;;;9.77;1.08;;;0.00;100.00;;;;;;5054022;28;20052;-74
2023/11/25 05:07:40;;;;;;;5.90;1.10;;;-0.10;100.00;;;;;;5057908;28;20036;-74
2023/11/25 05:10:09;;;;;;;6.68;1.10;;;-0.10;100.00;;;;;;5059325;28;20063;-74
2023/11/25 05:12:38;;;;;;;8.25;1.08;;;-0.10;100.00;;;;;;5054800;28;20064;-74
2023/11/25 05:15:08;;;;;;;11.45;1.23;;;-0.10;100.00;;;;;;5051938;28;20052;-81
2023/11/25 05:17:35;;;;;;;11.38;0.85;;;0.00;100.00;;;;;;5060375;28;20134;-81
2023/11/25 05:20:03;;;;;;;9.45;0.82;;;0.00;100.00;;;;;;5067801;28;20194;-81
2023/11/25 05:22:31;;;;;;;21.77;1.83;;;0.00;100.00;;;;;;5051989;28;20257;-81
2023/11/25 05:24:58;;;;;;;5.45;0.73;;;0.00;100.00;;;;;;5073967;28;20045;-81
2023/11/25 05:27:24;;;;;;;3.78;1.00;;;0.00;100.00;;;;;;5060415;28;20055;-81
2023/11/25 05:29:51;;;;;;;4.60;0.77;;;0.00;100.00;;;;;;5053472;28;20477;-81
2023/11/25 05:32:18;;;;;;;8.43;1.10;;;0.00;100.00;;;;;;5064496;28;20114;-81
2023/11/25 05:34:45;;;;;;;3.28;0.90;;;0.10;100.00;;;;;;5048754;28;20102;-81
2023/11/25 05:37:13;;;;;;;20.13;1.85;;;0.10;100.00;;;;;;5060024;28;20045;-82
2023/11/25 05:39:40;;;;;;;7.10;1.33;;;0.00;100.00;;;;;;5070831;28;20102;-81
2023/11/25 05:42:08;;;;;;;14.20;1.27;;;0.00;100.00;;;;;;5066835;28;20060;-81
2023/11/25 05:44:35;;;;;;;2.85;0.68;;;0.00;100.00;;;;;;5073898;28;20055;-82
2023/11/25 05:47:02;;;;;;;4.15;1.20;;;0.00;100.00;;;;;;5069317;28;20052;-82
2023/11/25 05:49:29;;;;;;;15.93;1.48;;;0.00;100.00;;;;;;5071998;28;20040;-82
2023/11/25 05:51:56;;;;;;;8.23;1.63;;;0.00;100.00;;;;;;5053545;28;20091;-82
2023/11/25 05:54:27;;;;;;;5.95;0.77;;;0.00;100.00;;;;;;5070087;28;20044;-81
2023/11/25 05:56:54;;;;;;;5.20;1.10;;;0.00;100.00;;;;;;5069111;28;20060;-81
2023/11/25 05:59:21;;;;;;;11.70;1.02;;;0.00;100.00;;;;;;5062360;28;20052;-81
2023/11/25 06:01:49;;;;;;;3.97;0.90;;;-0.10;100.00;;;;;;5049814;28;20052;-81
2023/11/25 06:04:16;;;;;;;1.98;0.68;;;-0.10;100.00;;;;;;5061320;28;20063;-82
2023/11/25 06:06:47;;;;;;;5.20;1.17;;;-0.10;100.00;;;;;;5055220;28;20060;-82
2023/11/25 06:09:15;;;;;;;6.45;1.38;;;-0.20;100.00;;;;;;5066127;28;20559;-82
2023/11/25 06:11:42;;;;;;;4.30;0.80;;;-0.20;100.00;;;;;;5061375;28;20696;-81
2023/11/25 06:14:12;;;;;;;6.18;1.20;;;-0.20;100.00;;;;;;5049641;28;20114;-82
2023/11/25 06:16:41;;;;;;;9.07;1.17;;;-0.20;100.00;;;;;;5049154;28;20420;-82
2023/11/25 06:19:10;;;;;;;3.60;0.90;;;-0.20;100.00;;;;;;5065414;28;20398;-82
2023/11/25 06:21:38;;;;;;;9.75;1.85;;;-0.20;100.00;;;;;;5048635;28;20055;-81
2023/11/25 06:24:07;;;;;;;8.55;1.25;;;-0.20;100.00;;;;;;5069667;28;20101;-81
2023/11/25 06:26:34;;;;;;;8.00;1.25;;;-0.20;100.00;;;;;;5047840;28;20109;-82
2023/11/25 06:29:02;;;;;;;7.60;1.02;;;-0.10;100.00;;;;;;5071060;28;20044;-83
2023/11/25 06:31:29;;;;;;;5.05;0.77;;;-0.10;100.00;;;;;;5065126;28;20056;-84
2023/11/25 06:33:58;;;;;;;2.78;0.90;;;0.00;100.00;;;;;;5055314;28;20139;-85
2023/11/25 06:36:25;;;;;;;15.57;1.50;;;0.00;100.00;;;;;;5066046;28;20685;-74
2023/11/25 06:38:52;;;;;;;6.30;1.08;;;0.00;100.00;;;;;;5043710;28;20040;-72
2023/11/25 06:41:23;;;;;;;5.90;1.30;;;0.00;100.00;;;;;;5041123;28;20052;-75
2023/11/25 06:43:50;;;;;;;8.40;1.00;;;0.00;100.00;;;;;;5041344;28;20048;-74
2023/11/25 06:46:17;;;;;;;9.70;1.40;;;0.00;100.00;;;;;;5059863;28;20045;-74
2023/11/25 06:48:44;;;;;;;3.65;1.02;;;0.10;100.00;;;;;;5040344;28;20401;-75
2023/11/25 06:51:11;;;;;;;8.52;1.38;;;0.20;100.00;;;;;;5072811;23;20674;-77
2023/11/25 06:53:41;;;;;;;3.42;1.00;;;0.20;100.00;;;;;;5062890;28;20485;-77
2023/11/25 06:56:10;;;;;;;5.57;1.20;;;0.20;100.00;;;;;;5062004;28;20101;-85
2023/11/25 06:58:37;;;;;;;9.15;1.08;;;0.30;100.00;;;;;;5060647;28;20045;-77
2023/11/25 07:01:04;;;;;;;8.20;1.58;;;0.30;100.00;;;;;;5062910;28;20048;-76
2023/11/25 07:03:32;;;;;;;16.60;1.95;;;0.30;100.00;;;;;;5039570;28;20049;-75
2023/11/25 07:05:59;;;;;;;6.88;1.15;;;0.30;100.00;;;;;;5037428;28;20477;-81
2023/11/25 07:08:26;;;;;;;4.93;1.48;;;0.40;100.00;;;;;;5054895;28;20045;-80
2023/11/25 07:10:59;;;;;;;2.78;1.00;;;0.40;100.00;;;;;;5062189;28;20162;-77
2023/11/25 07:13:28;;;;;;;4.38;0.85;;;0.30;100.00;;;;;;5062077;28;20048;-77
2023/11/25 07:15:56;;;;;;;2.17;0.80;;;0.30;100.00;;;;;;5059615;28;20110;-77
2023/11/25 07:18:23;;;;;;;3.95;0.90;;;0.30;100.00;;;;;;5059735;28;20052;-76
2023/11/25 07:20:50;;;;;;;8.02;0.77;;;0.30;100.00;;;;;;5064003;28;20048;-81
2023/11/25 07:23:20;;;;;;;5.03;1.17;;;0.40;100.00;;;;;;5047702;28;20044;-76
2023/11/25 07:25:47;;;;;;;5.30;0.77;;;0.30;100.00;;;;;;5062543;28;20060;-74
2023/11/25 07:28:15;;;;;;;11.57;1.10;;;0.40;100.00;;;;;;5061177;28;20464;-83
2023/11/25 07:30:44;;;;;;;5.78;0.70;;;0.40;100.00;;;;;;5045648;28;20060;-81
2023/11/25 07:33:11;;;;;;;7.88;0.90;;;0.40;100.00;;;;;;5062728;28;20048;-79
2023/11/25 07:35:39;;;;;;;7.35;1.70;;;0.50;100.00;;;;;;5059540;28;20063;-78
2023/11/25 07:38:06;;;;;;;4.15;0.80;;;0.50;100.00;;;;;;5056810;28;20063;-77
2023/11/25 07:40:34;;;;;;;4.65;1.08;;;0.60;100.00;;;;;;5059253;28;20049;-77
2023/11/25 07:43:01;;;;;;;13.32;1.77;;;0.60;100.00;;;;;;5071585;28;20055;-80
2023/11/25 07:45:28;;;;;;;10.25;1.67;;;0.60;100.00;;;;;;5066192;28;20056;-70
2023/11/25 07:47:55;;;;;;;1.77;0.85;;;0.60;100.00;;;;;;5067637;28;20705;-70
2023/11/25 07:50:22;;;;;;;1.65;0.60;;;0.60;100.00;;;;;;5049956;28;20058;-71
2023/11/25 07:52:50;;;;;;;5.85;1.40;;;0.60;100.00;;;;;;5051230;28;20067;-70
2023/11/25 07:55:18;;;;;;;4.43;0.73;;;0.60;100.00;;;;;;5061977;28;20048;-71
2023/11/25 07:57:47;;;;;;;8.55;2.17;;;0.60;100.00;;;;;;5064743;28;20863;-70
2023/11/25 08:00:19;;;;;;;10.02;1.58;;;0.70;100.00;;;;;;5068102;28;20044;-71
2023/11/25 08:02:49;;;;;;;6.35;1.70;;;0.70;100.00;;;;;;5067487;28;20055;-71
2023/11/25 08:05:22;;;;;;;3.50;1.30;;;0.70;100.00;;;;;;5068331;28;20461;-71
2023/11/25 08:07:54;;;;;;;4.70;1.70;;;0.80;100.00;;;;;;5068181;28;20067;-72
2023/11/25 08:10:24;;;;;;;5.85;1.80;;;0.80;100.00;;;;;;5064771;28;20127;-72
2023/11/25 08:12:51;;;;;;;2.20;1.38;;;0.80;100.00;;;;;;5046496;28;20114;-70
2023/11/25 08:15:18;;;;;;;13.50;1.70;;;0.90;100.00;;;;;;5050774;28;20675;-74
2023/11/25 08:17:46;;;;;;;11.10;2.00;;;0.90;100.00;;;;;;5065535;28;20120;-70
2023/11/25 08:20:13;;;;;;;8.18;1.58;;;0.90;100.00;;;;;;5067193;28;20378;-71
2023/11/25 08:22:40;;;;;;;9.35;1.45;;;0.90;100.00;;;;;;5066672;28;20044;-71
2023/11/25 08:25:09;;;;;;;8.18;1.58;;;1.00;100.00;;;;;;5063030;28;20454;-71
2023/11/25 08:27:39;;;;;;;3.33;1.60;;;1.00;100.00;;;;;;5057482;23;20056;-77
2023/11/25 08:30:10;;;;;;;12.23;4.03;;;1.00;100.00;;;;;;5046663;28;20044;-76
2023/11/25 08:32:41;;;;;;;18.42;8.70;;;1.10;100.00;;;;;;5052465;28;20063;-76
2023/11/25 08:35:09;;;;;;;20.70;7.13;;;1.10;100.00;;;;;;5028864;28;20547;-76
2023/11/25 08:37:38;;;;;;;11.10;2.38;;;1.20;100.00;;;;;;5053163;28;20045;-75
2023/11/25 08:40:15;;;;;;;7.15;2.50;;;1.20;100.00;;;;;;5053659;28;20059;-73
2023/11/25 08:42:44;;;;;;;10.68;1.73;;;1.20;100.00;;;;;;5044245;28;20430;-75
2023/11/25 08:45:12;;;;;;;9.43;2.33;;;1.30;100.00;;;;;;5047680;28;20055;-78
2023/11/25 08:47:42;;;;;;;5.90;1.65;;;1.30;100.00;;;;;;5039266;28;20489;-74
2023/11/25 08:50:15;;;;;;;5.40;2.10;;;1.30;100.00;;;;;;5058290;28;20048;-77
2023/11/25 08:52:44;;;;;;;16.58;6.07;;;1.40;100.00;;;;;;5044623;28;20770;-79
2023/11/25 08:55:17;;;;;;;6.55;2.65;;;1.40;100.00;;;;;;5032805;28;20045;-78
2023/11/25 08:57:44;;;;;;;10.55;3.05;;;1.40;100.00;;;;;;5049984;28;20048;-77
2023/11/25 09:00:21;;;;;;;15.63;4.00;;;1.50;100.00;;;;;;5062294;28;20052;-72
2023/11/25 09:02:51;;;;;;;10.52;3.05;;;1.50;100.00;;;;;;5060297;28;20936;-76
2023/11/25 09:05:25;;;;;;;14.02;3.10;;;1.50;100.00;;;;;;5029737;28;20040;-74
2023/11/25 09:07:54;;;;;;;11.73;2.58;;;1.60;100.00;;;;;;5053654;28;20052;-79
2023/11/25 09:10:23;;;;;;;4.85;2.40;;;1.60;100.00;;;;;;5033186;28;20804;-78
2023/11/25 09:12:52;;;;;;;11.48;2.97;;;1.70;100.00;;;;;;5055331;28;20493;-78
2023/11/25 09:15:20;;;;;;;15.30;3.22;;;1.80;100.00;;;;;;5040939;28;20490;-73
2023/11/25 09:21:08;;;;;;;7.88;2.58;;;2.10;100.00;;;;;;4984913;28;20114;-72
2023/11/25 09:23:35;;;;;;;4.22;2.25;;;2.40;100.00;;;;;;4971378;28;20070;-71
2023/11/25 09:26:02;;;;;;;9.73;2.55;;;2.40;100.00;;;;;;4971126;28;20079;-69
2023/11/25 09:28:29;;;;;;;6.15;1.88;;;2.40;100.00;;;;;;4958644;28;20046;-78
2023/11/25 09:30:57;;;;;;;7.72;2.55;;;2.30;100.00;;;;;;4953621;28;20479;-71
2023/11/25 09:33:24;;;;;;;4.82;2.58;;;2.20;100.00;;;;;;4960810;28;20058;-71
2023/11/25 09:35:51;;;;;;;6.10;2.30;;;2.20;100.00;;;;;;4969264;28;20073;-70
2023/11/25 09:38:18;;;;;;;9.95;2.45;;;2.20;100.00;;;;;;4976927;28;20090;-71
2023/11/25 09:40:45;;;;;;;9.05;2.22;;;2.20;100.00;;;;;;4972454;28;20046;-73
2023/11/25 09:43:12;;;;;;;10.20;2.60;;;2.20;100.00;;;;;;4974517;28;20850;-70
2023/11/25 09:45:40;;;;;;;10.10;2.38;;;2.30;100.00;;;;;;4986537;28;20046;-69
2023/11/25 09:48:07;;;;;;;14.88;2.40;;;2.30;100.00;;;;;;4975398;28;20054;-70
2023/11/25 09:50:35;;;;;;;7.38;2.00;;;2.40;100.00;;;;;;4978932;28;20853;-70
2023/11/25 09:53:12;;;;;;;12.93;2.28;;;2.50;100.00;;;;;;4974340;28;20068;-72
2023/11/25 09:55:41;;;;;;;8.25;3.15;;;2.60;100.00;;;;;;4976808;28;20066;-71
2023/11/25 09:58:08;;;;;;;11.63;2.85;;;2.60;100.00;;;;;;4977459;28;20140;-71
2023/11/25 10:04:14;;;;;;;11.10;2.05;;;2.60;100.00;;;;;;5128556;23;20580;-76
2023/11/25 10:06:41;;;;;;;9.98;2.10;;;2.60;100.00;;;;;;5076538;28;20044;-75
2023/11/25 10:15:11;;;;;;;7.38;2.10;;;2.50;100.00;;;;;;5016032;28;20053;-75
2023/11/25 10:17:42;;;;;;;4.65;2.40;;;2.60;100.00;;;;;;4999697;28;20199;-75
2023/11/25 10:20:09;;;;;;;11.65;2.50;;;2.90;100.00;;;;;;5015037;28;20053;-75
2023/11/25 10:22:53;;;;;;;6.90;2.15;;;3.00;100.00;;;;;;5015904;28;20510;-75
2023/11/25 10:25:21;;;;;;;6.82;2.83;;;3.10;100.00;;;;;;5009538;28;20041;-75
2023/11/25 10:27:51;;;;;;;9.50;2.63;;;3.10;100.00;;;;;;5010530;28;20041;-74
2023/11/25 10:30:20;;;;;;;12.60;3.22;;;3.10;100.00;;;;;;4995890;28;20980;-79
2023/11/25 10:32:52;;;;;;;11.80;3.35;;;3.10;100.00;;;;;;4994638;28;20041;-80
2023/11/25 10:35:20;;;;;;;6.75;2.42;;;3.10;100.00;;;;;;5001478;28;20041;-79
2023/11/25 10:37:48;;;;;;;10.82;3.20;;;3.20;100.00;;;;;;4999116;28;20049;-80
2023/11/25 10:40:18;;;;;;;5.53;2.63;;;3.20;100.00;;;;;;5003309;28;20045;-80
2023/11/25 10:42:45;;;;;;;10.85;3.00;;;3.20;100.00;;;;;;4991829;28;20046;-80
2023/11/25 10:45:16;;;;;;;8.30;3.03;;;3.00;100.00;;;;;;4995212;28;20049;-82
2023/11/25 10:47:43;;;;;;;6.90;3.28;;;3.10;100.00;;;;;;5009945;28;20305;-82
2023/11/25 10:50:13;;;;;;;9.32;2.63;;;3.20;100.00;;;;;;4991926;28;20054;-81
2023/11/25 10:52:46;;;;;;;8.88;2.80;;;3.40;100.00;;;;;;5013839;28;20069;-80
2023/11/25 10:55:13;;;;;;;6.95;2.67;;;3.50;100.00;;;;;;4993783;28;20129;-80
2023/11/25 10:57:40;;;;;;;10.43;2.55;;;3.70;100.00;;;;;;5014174;28;20371;-79
2023/11/25 11:00:11;;;;;;;12.63;2.47;;;3.80;100.00;;;;;;4991194;28;20089;-79
2023/11/25 11:02:49;;;;;;;6.03;2.70;;;3.80;100.00;;;;;;5004872;28;20104;-78
2023/11/25 11:05:36;;;;;;;11.90;3.30;;;3.60;100.00;;;;;;4986645;28;20735;-78
2023/11/25 11:08:19;;;;;;;11.15;2.83;;;4.00;100.00;;;;;;5002325;28;20802;-81
2023/11/25 11:10:59;;;;;;;10.25;2.83;;;4.80;100.00;;;;;;4989996;28;20137;-78
2023/11/25 11:13:31;;;;;;;7.00;2.28;;;5.40;100.00;;;;;;4998957;28;20054;-78
2023/11/25 11:16:02;;;;;;;5.35;2.47;;;5.50;100.00;;;;;;4985637;28;20130;-80
2023/11/25 11:18:35;;;;;;;11.07;2.95;;;5.20;100.00;;;;;;4986866;28;20505;-80
2023/11/25 11:21:06;;;;;;;9.18;2.97;;;5.50;100.00;;;;;;4986171;28;20083;-79
2023/11/25 11:23:37;;;;;;;8.38;2.63;;;5.40;100.00;;;;;;4972469;28;20261;-79
2023/11/25 11:26:28;;;;;;;6.43;2.60;;;4.90;100.00;;;;;;4976258;28;20092;-80
2023/11/25 11:29:37;;;;;;;10.50;3.30;;;4.80;100.00;;;;;;4985302;28;20100;-79
2023/11/25 11:32:07;;;;;;;7.93;3.10;;;4.90;100.00;;;;;;4984425;28;20076;-75
2023/11/25 11:34:39;;;;;;;10.25;3.50;;;4.90;100.00;;;;;;4976056;28;20137;-75
2023/11/25 11:37:08;;;;;;;6.35;3.33;;;4.90;100.00;;;;;;4982478;28;20488;-75
2023/11/25 11:39:42;;;;;;;12.68;3.22;;;5.00;100.00;;;;;;4963553;28;20061;-74
2023/11/25 11:42:25;;;;;;;8.18;2.90;;;4.60;100.00;;;;;;4979906;28;20042;-75
2023/11/25 11:47:57;;;;;;;7.10;3.40;;;4.30;100.00;;;;;;4978939;28;20065;-75
2023/11/25 11:50:29;;;;;;;5.13;2.97;;;4.40;100.00;;;;;;4982175;28;20088;-77
2023/11/25 11:52:59;;;;;;;8.27;3.17;;;4.20;100.00;;;;;;4979916;28;20054;-74
2023/11/25 11:55:38;;;;;;;10.68;3.42;;;4.10;100.00;;;;;;4982053;28;20141;-74
2023/11/25 11:58:06;;;;;;;18.83;3.58;;;4.10;100.00;;;;;;4976504;28;20570;-75
2023/11/25 12:00:41;;;;;;;7.40;2.35;;;4.00;100.00;;;;;;4962704;28;21721;-73
2023/11/25 12:03:09;;;;;;;11.68;3.70;;;4.10;100.00;;;;;;4980048;28;20088;-73
2023/11/25 12:05:36;;;;;;;7.45;3.00;;;4.20;100.00;;;;;;4981731;28;20463;-73
2023/11/25 12:08:05;;;;;;;8.90;3.28;;;4.30;100.00;;;;;;4977062;28;20152;-73
2023/11/25 12:10:32;;;;;;;16.10;3.47;;;4.20;100.00;;;;;;4982038;28;20046;-73
2023/11/25 12:13:03;;;;;;;7.60;3.25;;;4.10;100.00;;;;;;4975560;23;20603;-73
2023/11/25 12:15:30;;;;;;;16.50;3.28;;;4.00;100.00;;;;;;4987653;28;20060;-73
2023/11/25 12:18:00;;;;;;;7.40;3.15;;;4.00;100.00;;;;;;4994686;28;20089;-72
2023/11/25 12:20:27;;;;;;;8.25;2.67;;;4.10;100.00;;;;;;4996176;28;20050;-72
2023/11/25 12:22:55;;;;;;;14.35;2.85;;;4.20;100.00;;;;;;5001232;28;20570;-72
2023/11/25 12:25:26;;;;;;;13.57;3.40;;;4.50;100.00;;;;;;4996565;28;20681;-74
2023/11/25 12:28:10;;;;;;;11.40;3.60;;;4.70;100.00;;;;;;4999051;28;20553;-73
2023/11/25 12:34:12;;;;;;;16.52;5.82;;;5.00;100.00;;;;;;5005296;28;20046;-71
2023/11/25 12:36:39;;;;;;;9.43;3.03;;;4.90;100.00;;;;;;5018822;28;20057;-71
2023/11/25 12:39:11;;;;;;;12.45;3.08;;;5.10;100.00;;;;;;5012205;28;20072;-70
2023/11/25 12:41:43;;;;;;;19.13;4.72;;;5.20;100.00;;;;;;5002413;28;20543;-71
2023/11/25 12:44:10;;;;;;;19.73;5.07;;;5.30;100.00;;;;;;5014071;28;20052;-70
2023/11/25 12:46:39;;;;;;;10.23;3.58;;;5.30;100.00;;;;;;5018103;28;20083;-70
2023/11/25 12:49:23;;;;;;;25.48;7.30;;;5.60;100.00;;;;;;5014355;28;20427;-74
2023/11/25 12:51:51;;;;;;;12.00;3.70;;;5.70;100.00;;;;;;5016102;28;20240;-75
2023/11/25 12:54:19;;;;;;;163.23;17.98;;;6.20;100.00;;;;;;5018519;28;20060;-76
2023/11/25 12:56:52;;;;;;;27.40;4.80;;;6.60;100.00;;;;;;5001516;28;20570;-75
2023/11/25 12:59:29;;;;;;;9.95;2.53;;;6.60;100.00;;;;;;5012072;28;20685;-78
2023/11/25 13:02:08;;;;;;;6.80;2.85;;;6.30;100.00;;;;;;5026222;28;20134;-78
2023/11/25 13:04:49;;;;;;;22.48;8.10;;;6.40;100.00;;;;;;5010065;28;20118;-84
2023/11/25 13:07:30;;;;;;;35.28;13.15;;;6.00;100.00;;;;;;5020740;28;20049;-76
2023/11/25 13:09:58;;;;;;;19.00;5.32;;;5.90;100.00;;;;;;5012407;28;20080;-76
2023/11/25 13:12:27;;;;;;;15.30;3.20;;;5.90;100.00;;;;;;5014215;28;20510;-78